sensor_id;sensor_type;location;lat;lon;timestamp;P1;durP1;ratioP1;P2;durP2;ratioP2
69323;SDS011;56470;47.350;8.718;2022-10-16T00:02:25;5.88;;;2.33;;
69323;SDS011;56470;47.350;8.718;2022-10-16T00:04:51;7.93;;;2.03;;
69323;SDS011;56470;47.350;8.718;2022-10-16T00:07:16;7.20;;;2.40;;
69323;SDS011;56470;47.350;8.718;2022-10-16T00:09:45;4.47;;;1.87;;
69323;SDS011;56470;47.350;8.718;2022-10-16T00:12:11;5.32;;;1.80;;
69323;SDS011;56470;47.350;8.718;2022-10-16T00:14:36;4.22;;;2.00;;
69323;SDS011;56470;47.350;8.718;2022-10-16T00:17:03;4.15;;;1.63;;
69323;SDS011;56470;47.350;8.718;2022-10-16T00:19:28;7.60;;;2.00;;
69323;SDS011;56470;47.350;8.718;2022-10-16T00:21:57;3.13;;;1.70;;
69323;SDS011;56470;47.350;8.718;2022-10-16T00:24:29;4.90;;;1.95;;
69323;SDS011;56470;47.350;8.718;2022-10-16T00:27:00;5.73;;;2.03;;
69323;SDS011;56470;47.350;8.718;2022-10-16T00:29:31;11.55;;;1.80;;
69323;SDS011;56470;47.350;8.718;2022-10-16T00:32:06;13.63;;;6.03;;
69323;SDS011;56470;47.350;8.718;2022-10-16T00:35:02;5.75;;;2.42;;
69323;SDS011;56470;47.350;8.718;2022-10-16T00:37:28;9.40;;;2.45;;
69323;SDS011;56470;47.350;8.718;2022-10-16T00:39:55;5.60;;;1.70;;
69323;SDS011;56470;47.350;8.718;2022-10-16T00:42:23;2.60;;;1.33;;
69323;SDS011;56470;47.350;8.718;2022-10-16T00:44:53;4.50;;;1.70;;
69323;SDS011;56470;47.350;8.718;2022-10-16T00:47:28;2.97;;;1.65;;
69323;SDS011;56470;47.350;8.718;2022-10-16T00:52:57;7.10;;;1.97;;
69323;SDS011;56470;47.350;8.718;2022-10-16T00:55:26;6.00;;;1.80;;
69323;SDS011;56470;47.350;8.718;2022-10-16T00:57:55;4.95;;;1.70;;
69323;SDS011;56470;47.350;8.718;2022-10-16T01:00:24;6.57;;;1.83;;
69323;SDS011;56470;47.350;8.718;2022-10-16T01:02:54;3.70;;;1.60;;
69323;SDS011;56470;47.350;8.718;2022-10-16T01:05:23;9.17;;;2.00;;
69323;SDS011;56470;47.350;8.718;2022-10-16T01:08:04;7.03;;;1.70;;
69323;SDS011;56470;47.350;8.718;2022-10-16T01:10:43;4.95;;;1.63;;
69323;SDS011;56470;47.350;8.718;2022-10-16T01:13:24;5.30;;;2.00;;
69323;SDS011;56470;47.350;8.718;2022-10-16T01:18:34;5.10;;;1.60;;
69323;SDS011;56470;47.350;8.718;2022-10-16T01:21:16;4.65;;;1.50;;
69323;SDS011;56470;47.350;8.718;2022-10-16T01:29:27;4.30;;;1.40;;
69323;SDS011;56470;47.350;8.718;2022-10-16T01:32:16;6.03;;;1.20;;
69323;SDS011;56470;47.350;8.718;2022-10-16T01:34:50;3.92;;;1.25;;
69323;SDS011;56470;47.350;8.718;2022-10-16T01:37:29;5.93;;;1.70;;
69323;SDS011;56470;47.350;8.718;2022-10-16T01:40:11;3.17;;;1.60;;
69323;SDS011;56470;47.350;8.718;2022-10-16T01:42:55;4.00;;;1.60;;
69323;SDS011;56470;47.350;8.718;2022-10-16T01:45:33;5.50;;;1.07;;
69323;SDS011;56470;47.350;8.718;2022-10-16T01:48:01;3.47;;;1.30;;
69323;SDS011;56470;47.350;8.718;2022-10-16T01:50:35;3.53;;;1.42;;
69323;SDS011;56470;47.350;8.718;2022-10-16T01:53:12;4.32;;;1.23;;
69323;SDS011;56470;47.350;8.718;2022-10-16T01:55:40;3.45;;;1.00;;
69323;SDS011;56470;47.350;8.718;2022-10-16T01:58:12;3.40;;;1.33;;
69323;SDS011;56470;47.350;8.718;2022-10-16T02:00:41;4.20;;;1.40;;
69323;SDS011;56470;47.350;8.718;2022-10-16T02:03:17;5.30;;;1.58;;
69323;SDS011;56470;47.350;8.718;2022-10-16T02:06:08;4.07;;;1.77;;
69323;SDS011;56470;47.350;8.718;2022-10-16T02:08:55;4.60;;;1.77;;
69323;SDS011;56470;47.350;8.718;2022-10-16T02:11:23;2.77;;;1.57;;
69323;SDS011;56470;47.350;8.718;2022-10-16T02:13:55;5.13;;;1.80;;
69323;SDS011;56470;47.350;8.718;2022-10-16T02:16:40;3.67;;;1.20;;
69323;SDS011;56470;47.350;8.718;2022-10-16T02:19:17;2.80;;;1.30;;
69323;SDS011;56470;47.350;8.718;2022-10-16T02:21:58;4.47;;;1.52;;
69323;SDS011;56470;47.350;8.718;2022-10-16T02:24:43;8.17;;;1.43;;
69323;SDS011;56470;47.350;8.718;2022-10-16T02:30:52;2.72;;;1.65;;
69323;SDS011;56470;47.350;8.718;2022-10-16T02:33:25;2.42;;;1.35;;
69323;SDS011;56470;47.350;8.718;2022-10-16T02:36:20;3.35;;;1.23;;
69323;SDS011;56470;47.350;8.718;2022-10-16T02:38:52;2.53;;;1.40;;
69323;SDS011;56470;47.350;8.718;2022-10-16T02:41:22;5.47;;;1.38;;
69323;SDS011;56470;47.350;8.718;2022-10-16T02:44:09;5.72;;;1.48;;
69323;SDS011;56470;47.350;8.718;2022-10-16T02:46:41;2.72;;;1.20;;
69323;SDS011;56470;47.350;8.718;2022-10-16T02:49:06;3.88;;;1.10;;
69323;SDS011;56470;47.350;8.718;2022-10-16T02:51:33;3.00;;;1.60;;
69323;SDS011;56470;47.350;8.718;2022-10-16T02:54:10;3.65;;;1.45;;
69323;SDS011;56470;47.350;8.718;2022-10-16T02:56:35;3.60;;;1.20;;
69323;SDS011;56470;47.350;8.718;2022-10-16T02:59:01;5.77;;;1.33;;
69323;SDS011;56470;47.350;8.718;2022-10-16T03:01:48;3.00;;;1.23;;
69323;SDS011;56470;47.350;8.718;2022-10-16T03:04:19;2.93;;;1.40;;
69323;SDS011;56470;47.350;8.718;2022-10-16T03:10:37;2.97;;;1.33;;
69323;SDS011;56470;47.350;8.718;2022-10-16T03:14:06;5.07;;;1.50;;
69323;SDS011;56470;47.350;8.718;2022-10-16T03:17:01;3.38;;;1.35;;
69323;SDS011;56470;47.350;8.718;2022-10-16T03:20:17;3.07;;;1.50;;
69323;SDS011;56470;47.350;8.718;2022-10-16T03:23:03;5.03;;;1.65;;
69323;SDS011;56470;47.350;8.718;2022-10-16T03:25:42;3.13;;;1.30;;
69323;SDS011;56470;47.350;8.718;2022-10-16T03:28:42;6.30;;;1.42;;
69323;SDS011;56470;47.350;8.718;2022-10-16T03:32:14;3.15;;;1.60;;
69323;SDS011;56470;47.350;8.718;2022-10-16T03:35:05;3.83;;;1.50;;
69323;SDS011;56470;47.350;8.718;2022-10-16T03:38:12;4.35;;;1.50;;
69323;SDS011;56470;47.350;8.718;2022-10-16T03:41:16;5.30;;;1.73;;
69323;SDS011;56470;47.350;8.718;2022-10-16T03:43:46;3.38;;;1.65;;
69323;SDS011;56470;47.350;8.718;2022-10-16T03:46:29;4.88;;;1.73;;
69323;SDS011;56470;47.350;8.718;2022-10-16T03:48:57;5.43;;;1.40;;
69323;SDS011;56470;47.350;8.718;2022-10-16T03:51:27;3.10;;;1.60;;
69323;SDS011;56470;47.350;8.718;2022-10-16T03:54:01;3.00;;;1.40;;
69323;SDS011;56470;47.350;8.718;2022-10-16T03:57:12;4.03;;;1.50;;
69323;SDS011;56470;47.350;8.718;2022-10-16T03:59:40;6.00;;;1.60;;
69323;SDS011;56470;47.350;8.718;2022-10-16T04:02:17;4.57;;;1.20;;
69323;SDS011;56470;47.350;8.718;2022-10-16T04:04:48;8.25;;;1.40;;
69323;SDS011;56470;47.350;8.718;2022-10-16T04:08:06;4.00;;;1.50;;
69323;SDS011;56470;47.350;8.718;2022-10-16T04:11:09;5.78;;;1.25;;
69323;SDS011;56470;47.350;8.718;2022-10-16T04:13:47;3.00;;;0.90;;
69323;SDS011;56470;47.350;8.718;2022-10-16T04:16:23;2.97;;;1.60;;
69323;SDS011;56470;47.350;8.718;2022-10-16T04:19:06;3.35;;;1.48;;
69323;SDS011;56470;47.350;8.718;2022-10-16T04:21:35;4.25;;;1.48;;
69323;SDS011;56470;47.350;8.718;2022-10-16T04:24:06;3.08;;;1.20;;
69323;SDS011;56470;47.350;8.718;2022-10-16T04:29:34;3.87;;;1.43;;
69323;SDS011;56470;47.350;8.718;2022-10-16T04:32:07;3.40;;;1.70;;
69323;SDS011;56470;47.350;8.718;2022-10-16T04:35:14;5.60;;;1.70;;
69323;SDS011;56470;47.350;8.718;2022-10-16T04:41:15;6.63;;;2.03;;
69323;SDS011;56470;47.350;8.718;2022-10-16T04:44:38;6.87;;;1.93;;
69323;SDS011;56470;47.350;8.718;2022-10-16T04:47:33;4.70;;;1.45;;
69323;SDS011;56470;47.350;8.718;2022-10-16T04:50:10;3.03;;;1.20;;
69323;SDS011;56470;47.350;8.718;2022-10-16T04:52:57;1.95;;;1.17;;
69323;SDS011;56470;47.350;8.718;2022-10-16T04:55:26;2.50;;;1.35;;
69323;SDS011;56470;47.350;8.718;2022-10-16T04:58:01;4.17;;;1.60;;
69323;SDS011;56470;47.350;8.718;2022-10-16T05:00:34;2.55;;;1.52;;
69323;SDS011;56470;47.350;8.718;2022-10-16T05:03:09;3.65;;;1.30;;
69323;SDS011;56470;47.350;8.718;2022-10-16T05:05:52;3.72;;;1.60;;
69323;SDS011;56470;47.350;8.718;2022-10-16T05:09:00;2.53;;;1.40;;
69323;SDS011;56470;47.350;8.718;2022-10-16T05:12:14;6.80;;;1.50;;
69323;SDS011;56470;47.350;8.718;2022-10-16T05:14:56;4.30;;;1.08;;
69323;SDS011;56470;47.350;8.718;2022-10-16T05:17:52;4.05;;;1.48;;
69323;SDS011;56470;47.350;8.718;2022-10-16T05:20:58;3.40;;;1.60;;
69323;SDS011;56470;47.350;8.718;2022-10-16T05:23:51;2.55;;;1.45;;
69323;SDS011;56470;47.350;8.718;2022-10-16T05:26:40;6.43;;;1.77;;
69323;SDS011;56470;47.350;8.718;2022-10-16T05:29:34;4.90;;;1.15;;
69323;SDS011;56470;47.350;8.718;2022-10-16T05:33:02;7.00;;;1.42;;
69323;SDS011;56470;47.350;8.718;2022-10-16T05:35:39;4.45;;;1.58;;
69323;SDS011;56470;47.350;8.718;2022-10-16T05:38:10;4.15;;;1.63;;
69323;SDS011;56470;47.350;8.718;2022-10-16T05:41:26;2.63;;;1.53;;
69323;SDS011;56470;47.350;8.718;2022-10-16T05:47:20;2.08;;;1.00;;
69323;SDS011;56470;47.350;8.718;2022-10-16T05:49:54;2.70;;;1.48;;
69323;SDS011;56470;47.350;8.718;2022-10-16T05:52:24;5.28;;;1.45;;
69323;SDS011;56470;47.350;8.718;2022-10-16T05:54:52;3.40;;;1.13;;
69323;SDS011;56470;47.350;8.718;2022-10-16T05:57:28;4.68;;;1.92;;
69323;SDS011;56470;47.350;8.718;2022-10-16T06:00:19;3.78;;;1.50;;
69323;SDS011;56470;47.350;8.718;2022-10-16T06:02:49;2.95;;;1.33;;
69323;SDS011;56470;47.350;8.718;2022-10-16T06:05:56;2.88;;;1.48;;
69323;SDS011;56470;47.350;8.718;2022-10-16T06:08:26;2.87;;;1.20;;
69323;SDS011;56470;47.350;8.718;2022-10-16T06:11:02;2.53;;;1.25;;
69323;SDS011;56470;47.350;8.718;2022-10-16T06:14:10;3.72;;;1.48;;
69323;SDS011;56470;47.350;8.718;2022-10-16T06:16:47;2.88;;;1.15;;
69323;SDS011;56470;47.350;8.718;2022-10-16T06:19:44;4.38;;;1.50;;
69323;SDS011;56470;47.350;8.718;2022-10-16T06:22:30;3.27;;;1.60;;
69323;SDS011;56470;47.350;8.718;2022-10-16T06:25:30;4.53;;;1.50;;
69323;SDS011;56470;47.350;8.718;2022-10-16T06:30:58;3.28;;;1.45;;
69323;SDS011;56470;47.350;8.718;2022-10-16T06:33:24;3.13;;;1.50;;
69323;SDS011;56470;47.350;8.718;2022-10-16T06:35:53;4.40;;;1.70;;
69323;SDS011;56470;47.350;8.718;2022-10-16T06:38:24;3.03;;;1.50;;
69323;SDS011;56470;47.350;8.718;2022-10-16T06:40:50;6.43;;;1.83;;
69323;SDS011;56470;47.350;8.718;2022-10-16T06:43:15;4.70;;;1.20;;
69323;SDS011;56470;47.350;8.718;2022-10-16T06:45:40;3.63;;;1.77;;
69323;SDS011;56470;47.350;8.718;2022-10-16T06:48:06;7.03;;;1.90;;
69323;SDS011;56470;47.350;8.718;2022-10-16T06:50:31;5.10;;;1.60;;
69323;SDS011;56470;47.350;8.718;2022-10-16T06:52:57;4.40;;;1.57;;
69323;SDS011;56470;47.350;8.718;2022-10-16T06:55:22;4.22;;;1.67;;
69323;SDS011;56470;47.350;8.718;2022-10-16T06:57:47;3.23;;;1.20;;
69323;SDS011;56470;47.350;8.718;2022-10-16T07:00:13;2.63;;;1.13;;
69323;SDS011;56470;47.350;8.718;2022-10-16T07:02:39;3.45;;;1.15;;
69323;SDS011;56470;47.350;8.718;2022-10-16T07:05:04;2.87;;;1.17;;
69323;SDS011;56470;47.350;8.718;2022-10-16T07:07:30;5.37;;;3.37;;
69323;SDS011;56470;47.350;8.718;2022-10-16T07:09:55;4.00;;;1.93;;
69323;SDS011;56470;47.350;8.718;2022-10-16T07:12:20;4.80;;;1.57;;
69323;SDS011;56470;47.350;8.718;2022-10-16T07:14:46;3.23;;;1.60;;
69323;SDS011;56470;47.350;8.718;2022-10-16T07:17:11;4.70;;;1.73;;
69323;SDS011;56470;47.350;8.718;2022-10-16T07:19:36;6.97;;;3.20;;
69323;SDS011;56470;47.350;8.718;2022-10-16T07:22:02;5.20;;;3.10;;
69323;SDS011;56470;47.350;8.718;2022-10-16T07:24:28;4.50;;;2.00;;
69323;SDS011;56470;47.350;8.718;2022-10-16T07:26:53;4.73;;;1.57;;
69323;SDS011;56470;47.350;8.718;2022-10-16T07:29:20;6.05;;;1.55;;
69323;SDS011;56470;47.350;8.718;2022-10-16T07:31:47;4.70;;;1.30;;
69323;SDS011;56470;47.350;8.718;2022-10-16T07:34:13;4.40;;;1.50;;
69323;SDS011;56470;47.350;8.718;2022-10-16T07:36:40;3.65;;;1.40;;
69323;SDS011;56470;47.350;8.718;2022-10-16T07:39:05;5.93;;;1.53;;
69323;SDS011;56470;47.350;8.718;2022-10-16T07:41:31;5.05;;;1.65;;
69323;SDS011;56470;47.350;8.718;2022-10-16T07:43:58;4.33;;;1.47;;
69323;SDS011;56470;47.350;8.718;2022-10-16T07:46:25;2.53;;;1.20;;
69323;SDS011;56470;47.350;8.718;2022-10-16T07:48:51;5.55;;;1.70;;
69323;SDS011;56470;47.350;8.718;2022-10-16T07:51:17;2.33;;;1.15;;
69323;SDS011;56470;47.350;8.718;2022-10-16T07:53:45;3.67;;;1.73;;
69323;SDS011;56470;47.350;8.718;2022-10-16T07:56:10;3.65;;;1.85;;
69323;SDS011;56470;47.350;8.718;2022-10-16T07:58:36;7.55;;;1.70;;
69323;SDS011;56470;47.350;8.718;2022-10-16T08:01:09;4.07;;;1.83;;
69323;SDS011;56470;47.350;8.718;2022-10-16T08:03:36;5.80;;;1.67;;
69323;SDS011;56470;47.350;8.718;2022-10-16T08:06:01;3.28;;;1.90;;
69323;SDS011;56470;47.350;8.718;2022-10-16T08:08:28;6.53;;;1.70;;
69323;SDS011;56470;47.350;8.718;2022-10-16T08:10:54;4.38;;;2.15;;
69323;SDS011;56470;47.350;8.718;2022-10-16T08:13:20;4.45;;;2.42;;
69323;SDS011;56470;47.350;8.718;2022-10-16T08:15:45;4.20;;;2.13;;
69323;SDS011;56470;47.350;8.718;2022-10-16T08:18:11;4.03;;;2.07;;
69323;SDS011;56470;47.350;8.718;2022-10-16T08:20:37;3.65;;;1.90;;
69323;SDS011;56470;47.350;8.718;2022-10-16T08:23:03;5.20;;;2.20;;
69323;SDS011;56470;47.350;8.718;2022-10-16T08:25:29;5.27;;;1.80;;
69323;SDS011;56470;47.350;8.718;2022-10-16T08:27:55;4.97;;;1.65;;
69323;SDS011;56470;47.350;8.718;2022-10-16T08:30:21;2.85;;;1.77;;
69323;SDS011;56470;47.350;8.718;2022-10-16T08:32:50;5.60;;;2.57;;
69323;SDS011;56470;47.350;8.718;2022-10-16T08:35:15;4.10;;;2.20;;
69323;SDS011;56470;47.350;8.718;2022-10-16T08:37:41;3.45;;;1.88;;
69323;SDS011;56470;47.350;8.718;2022-10-16T08:40:15;7.10;;;2.17;;
69323;SDS011;56470;47.350;8.718;2022-10-16T08:50:57;4.18;;;1.40;;
69323;SDS011;56470;47.350;8.718;2022-10-16T08:53:35;2.90;;;1.60;;
69323;SDS011;56470;47.350;8.718;2022-10-16T08:56:07;3.72;;;1.70;;
69323;SDS011;56470;47.350;8.718;2022-10-16T08:58:33;2.90;;;1.37;;
69323;SDS011;56470;47.350;8.718;2022-10-16T09:01:03;7.23;;;2.00;;
69323;SDS011;56470;47.350;8.718;2022-10-16T09:03:42;3.28;;;1.10;;
69323;SDS011;56470;47.350;8.718;2022-10-16T09:06:20;5.47;;;1.42;;
69323;SDS011;56470;47.350;8.718;2022-10-16T09:11:30;2.63;;;1.30;;
69323;SDS011;56470;47.350;8.718;2022-10-16T09:14:19;3.40;;;1.30;;
69323;SDS011;56470;47.350;8.718;2022-10-16T09:17:26;2.25;;;1.10;;
69323;SDS011;56470;47.350;8.718;2022-10-16T09:19:54;5.35;;;1.40;;
69323;SDS011;56470;47.350;8.718;2022-10-16T09:22:28;5.35;;;1.67;;
69323;SDS011;56470;47.350;8.718;2022-10-16T09:24:59;3.67;;;2.00;;
69323;SDS011;56470;47.350;8.718;2022-10-16T09:27:26;4.43;;;1.57;;
69323;SDS011;56470;47.350;8.718;2022-10-16T09:29:51;3.45;;;1.23;;
69323;SDS011;56470;47.350;8.718;2022-10-16T09:32:20;2.70;;;1.43;;
69323;SDS011;56470;47.350;8.718;2022-10-16T09:34:51;8.77;;;1.52;;
69323;SDS011;56470;47.350;8.718;2022-10-16T09:37:21;7.40;;;1.47;;
69323;SDS011;56470;47.350;8.718;2022-10-16T09:39:49;3.17;;;1.20;;
69323;SDS011;56470;47.350;8.718;2022-10-16T09:42:17;2.67;;;1.40;;
69323;SDS011;56470;47.350;8.718;2022-10-16T09:44:47;4.55;;;1.20;;
69323;SDS011;56470;47.350;8.718;2022-10-16T09:47:18;4.88;;;1.50;;
69323;SDS011;56470;47.350;8.718;2022-10-16T09:49:59;2.83;;;1.33;;
69323;SDS011;56470;47.350;8.718;2022-10-16T09:52:31;2.63;;;1.17;;
69323;SDS011;56470;47.350;8.718;2022-10-16T09:55:02;3.63;;;1.65;;
69323;SDS011;56470;47.350;8.718;2022-10-16T09:57:47;9.30;;;1.65;;
69323;SDS011;56470;47.350;8.718;2022-10-16T10:00:15;4.13;;;1.67;;
69323;SDS011;56470;47.350;8.718;2022-10-16T10:02:42;4.20;;;1.73;;
69323;SDS011;56470;47.350;8.718;2022-10-16T10:05:18;2.50;;;1.30;;
69323;SDS011;56470;47.350;8.718;2022-10-16T10:07:52;3.97;;;0.97;;
69323;SDS011;56470;47.350;8.718;2022-10-16T10:10:27;5.45;;;1.63;;
69323;SDS011;56470;47.350;8.718;2022-10-16T10:12:54;4.97;;;1.38;;
69323;SDS011;56470;47.350;8.718;2022-10-16T10:15:20;3.38;;;1.20;;
69323;SDS011;56470;47.350;8.718;2022-10-16T10:17:49;3.33;;;1.48;;
69323;SDS011;56470;47.350;8.718;2022-10-16T10:20:24;3.40;;;1.90;;
69323;SDS011;56470;47.350;8.718;2022-10-16T10:22:52;3.13;;;1.23;;
69323;SDS011;56470;47.350;8.718;2022-10-16T10:25:23;4.75;;;1.60;;
69323;SDS011;56470;47.350;8.718;2022-10-16T10:33:30;2.97;;;1.35;;
69323;SDS011;56470;47.350;8.718;2022-10-16T10:41:06;4.57;;;1.37;;
69323;SDS011;56470;47.350;8.718;2022-10-16T10:49:21;2.60;;;1.20;;
69323;SDS011;56470;47.350;8.718;2022-10-16T10:54:36;5.38;;;1.08;;
69323;SDS011;56470;47.350;8.718;2022-10-16T10:57:14;4.60;;;1.13;;
69323;SDS011;56470;47.350;8.718;2022-10-16T11:02:34;4.22;;;1.40;;
69323;SDS011;56470;47.350;8.718;2022-10-16T11:08:00;2.70;;;1.13;;
69323;SDS011;56470;47.350;8.718;2022-10-16T11:10:40;2.53;;;1.10;;
69323;SDS011;56470;47.350;8.718;2022-10-16T11:13:15;2.83;;;0.98;;
69323;SDS011;56470;47.350;8.718;2022-10-16T11:15:47;1.80;;;1.20;;
69323;SDS011;56470;47.350;8.718;2022-10-16T11:18:16;2.70;;;1.50;;
69323;SDS011;56470;47.350;8.718;2022-10-16T11:20:53;3.28;;;1.35;;
69323;SDS011;56470;47.350;8.718;2022-10-16T11:26:08;2.83;;;1.25;;
69323;SDS011;56470;47.350;8.718;2022-10-16T11:28:44;1.85;;;1.13;;
69323;SDS011;56470;47.350;8.718;2022-10-16T11:31:20;3.67;;;1.15;;
69323;SDS011;56470;47.350;8.718;2022-10-16T11:34:03;2.80;;;1.20;;
69323;SDS011;56470;47.350;8.718;2022-10-16T11:39:24;2.08;;;0.98;;
69323;SDS011;56470;47.350;8.718;2022-10-16T11:44:27;1.55;;;0.95;;
69323;SDS011;56470;47.350;8.718;2022-10-16T11:49:57;2.57;;;1.20;;
69323;SDS011;56470;47.350;8.718;2022-10-16T11:52:28;1.90;;;1.20;;
69323;SDS011;56470;47.350;8.718;2022-10-16T11:55:17;1.98;;;1.33;;
69323;SDS011;56470;47.350;8.718;2022-10-16T11:57:52;2.88;;;1.10;;
69323;SDS011;56470;47.350;8.718;2022-10-16T12:03:15;3.40;;;1.37;;
69323;SDS011;56470;47.350;8.718;2022-10-16T12:08:22;2.80;;;1.35;;
69323;SDS011;56470;47.350;8.718;2022-10-16T12:10:48;2.63;;;1.10;;
69323;SDS011;56470;47.350;8.718;2022-10-16T12:18:38;3.53;;;1.13;;
69323;SDS011;56470;47.350;8.718;2022-10-16T12:21:08;2.67;;;1.15;;
69323;SDS011;56470;47.350;8.718;2022-10-16T12:23:38;2.45;;;1.45;;
69323;SDS011;56470;47.350;8.718;2022-10-16T12:26:13;2.95;;;1.52;;
69323;SDS011;56470;47.350;8.718;2022-10-16T12:28:48;3.38;;;1.05;;
69323;SDS011;56470;47.350;8.718;2022-10-16T12:31:16;2.00;;;1.23;;
69323;SDS011;56470;47.350;8.718;2022-10-16T12:33:50;2.70;;;1.05;;
69323;SDS011;56470;47.350;8.718;2022-10-16T12:36:27;3.42;;;1.17;;
69323;SDS011;56470;47.350;8.718;2022-10-16T12:38:57;2.00;;;0.93;;
69323;SDS011;56470;47.350;8.718;2022-10-16T12:41:28;4.03;;;1.27;;
69323;SDS011;56470;47.350;8.718;2022-10-16T12:43:55;2.70;;;0.88;;
69323;SDS011;56470;47.350;8.718;2022-10-16T12:46:33;2.30;;;1.00;;
69323;SDS011;56470;47.350;8.718;2022-10-16T12:51:37;2.43;;;1.33;;
69323;SDS011;56470;47.350;8.718;2022-10-16T12:56:50;3.10;;;1.30;;
69323;SDS011;56470;47.350;8.718;2022-10-16T13:13:48;2.58;;;1.10;;
69323;SDS011;56470;47.350;8.718;2022-10-16T13:19:16;2.77;;;1.03;;
69323;SDS011;56470;47.350;8.718;2022-10-16T13:21:48;1.50;;;0.93;;
69323;SDS011;56470;47.350;8.718;2022-10-16T13:27:28;1.55;;;0.85;;
69323;SDS011;56470;47.350;8.718;2022-10-16T13:30:11;1.73;;;1.17;;
69323;SDS011;56470;47.350;8.718;2022-10-16T13:32:40;2.17;;;1.10;;
69323;SDS011;56470;47.350;8.718;2022-10-16T13:35:27;2.33;;;1.23;;
69323;SDS011;56470;47.350;8.718;2022-10-16T13:38:05;3.80;;;1.42;;
69323;SDS011;56470;47.350;8.718;2022-10-16T13:40:53;3.03;;;0.82;;
69323;SDS011;56470;47.350;8.718;2022-10-16T13:43:32;1.77;;;1.13;;
69323;SDS011;56470;47.350;8.718;2022-10-16T13:46:04;1.77;;;1.00;;
69323;SDS011;56470;47.350;8.718;2022-10-16T13:48:31;2.28;;;1.20;;
69323;SDS011;56470;47.350;8.718;2022-10-16T13:51:17;1.85;;;1.00;;
69323;SDS011;56470;47.350;8.718;2022-10-16T13:53:43;2.25;;;1.13;;
69323;SDS011;56470;47.350;8.718;2022-10-16T13:56:16;3.05;;;0.93;;
69323;SDS011;56470;47.350;8.718;2022-10-16T13:58:44;2.17;;;0.90;;
69323;SDS011;56470;47.350;8.718;2022-10-16T14:01:15;1.40;;;0.70;;
69323;SDS011;56470;47.350;8.718;2022-10-16T14:03:44;3.97;;;1.20;;
69323;SDS011;56470;47.350;8.718;2022-10-16T14:06:12;2.78;;;0.90;;
69323;SDS011;56470;47.350;8.718;2022-10-16T14:08:42;2.58;;;1.23;;
69323;SDS011;56470;47.350;8.718;2022-10-16T14:11:09;2.67;;;1.10;;
69323;SDS011;56470;47.350;8.718;2022-10-16T14:13:38;2.38;;;0.90;;
69323;SDS011;56470;47.350;8.718;2022-10-16T14:16:15;2.95;;;1.50;;
69323;SDS011;56470;47.350;8.718;2022-10-16T14:19:06;4.18;;;1.95;;
69323;SDS011;56470;47.350;8.718;2022-10-16T14:21:32;5.33;;;1.60;;
69323;SDS011;56470;47.350;8.718;2022-10-16T14:23:58;7.55;;;2.75;;
69323;SDS011;56470;47.350;8.718;2022-10-16T14:26:24;5.30;;;1.77;;
69323;SDS011;56470;47.350;8.718;2022-10-16T14:29:10;3.85;;;1.70;;
69323;SDS011;56470;47.350;8.718;2022-10-16T14:31:38;3.70;;;1.50;;
69323;SDS011;56470;47.350;8.718;2022-10-16T14:34:05;7.10;;;2.28;;
69323;SDS011;56470;47.350;8.718;2022-10-16T14:37:05;3.97;;;1.57;;
69323;SDS011;56470;47.350;8.718;2022-10-16T14:39:38;4.35;;;1.65;;
69323;SDS011;56470;47.350;8.718;2022-10-16T14:42:04;4.22;;;1.67;;
69323;SDS011;56470;47.350;8.718;2022-10-16T14:44:41;3.88;;;1.80;;
69323;SDS011;56470;47.350;8.718;2022-10-16T14:47:07;5.20;;;1.87;;
69323;SDS011;56470;47.350;8.718;2022-10-16T14:49:37;4.38;;;1.55;;
69323;SDS011;56470;47.350;8.718;2022-10-16T14:52:04;4.70;;;1.50;;
69323;SDS011;56470;47.350;8.718;2022-10-16T14:54:33;4.30;;;1.85;;
69323;SDS011;56470;47.350;8.718;2022-10-16T14:56:58;5.10;;;1.60;;
69323;SDS011;56470;47.350;8.718;2022-10-16T14:59:32;4.50;;;1.70;;
69323;SDS011;56470;47.350;8.718;2022-10-16T15:04:50;3.50;;;1.88;;
69323;SDS011;56470;47.350;8.718;2022-10-16T15:07:15;5.90;;;1.60;;
69323;SDS011;56470;47.350;8.718;2022-10-16T15:09:40;5.10;;;2.07;;
69323;SDS011;56470;47.350;8.718;2022-10-16T15:12:06;3.85;;;1.50;;
69323;SDS011;56470;47.350;8.718;2022-10-16T15:14:31;5.30;;;2.07;;
69323;SDS011;56470;47.350;8.718;2022-10-16T15:16:56;8.37;;;3.37;;
69323;SDS011;56470;47.350;8.718;2022-10-16T15:19:22;6.57;;;2.40;;
69323;SDS011;56470;47.350;8.718;2022-10-16T15:21:47;4.87;;;1.77;;
69323;SDS011;56470;47.350;8.718;2022-10-16T15:24:14;7.57;;;2.10;;
69323;SDS011;56470;47.350;8.718;2022-10-16T15:26:40;5.85;;;2.40;;
69323;SDS011;56470;47.350;8.718;2022-10-16T15:29:05;7.47;;;2.37;;
69323;SDS011;56470;47.350;8.718;2022-10-16T15:31:31;3.35;;;1.70;;
69323;SDS011;56470;47.350;8.718;2022-10-16T15:33:57;6.67;;;2.83;;
69323;SDS011;56470;47.350;8.718;2022-10-16T15:36:32;4.50;;;2.17;;
69323;SDS011;56470;47.350;8.718;2022-10-16T15:39:01;3.05;;;1.88;;
69323;SDS011;56470;47.350;8.718;2022-10-16T15:41:37;9.35;;;2.17;;
69323;SDS011;56470;47.350;8.718;2022-10-16T15:44:03;5.60;;;2.40;;
69323;SDS011;56470;47.350;8.718;2022-10-16T15:46:28;7.33;;;2.00;;
69323;SDS011;56470;47.350;8.718;2022-10-16T15:48:56;5.55;;;2.28;;
69323;SDS011;56470;47.350;8.718;2022-10-16T15:51:23;7.10;;;1.65;;
69323;SDS011;56470;47.350;8.718;2022-10-16T15:53:49;4.85;;;2.08;;
69323;SDS011;56470;47.350;8.718;2022-10-16T15:56:15;5.13;;;1.83;;
69323;SDS011;56470;47.350;8.718;2022-10-16T15:58:42;3.17;;;1.38;;
69323;SDS011;56470;47.350;8.718;2022-10-16T16:01:07;4.18;;;1.70;;
69323;SDS011;56470;47.350;8.718;2022-10-16T16:03:35;3.60;;;1.77;;
69323;SDS011;56470;47.350;8.718;2022-10-16T16:06:05;4.22;;;1.67;;
69323;SDS011;56470;47.350;8.718;2022-10-16T16:08:32;3.30;;;1.65;;
69323;SDS011;56470;47.350;8.718;2022-10-16T16:10:59;4.68;;;1.80;;
69323;SDS011;56470;47.350;8.718;2022-10-16T16:13:34;4.38;;;2.05;;
69323;SDS011;56470;47.350;8.718;2022-10-16T16:16:02;5.07;;;2.00;;
69323;SDS011;56470;47.350;8.718;2022-10-16T16:18:30;6.30;;;1.73;;
69323;SDS011;56470;47.350;8.718;2022-10-16T16:20:56;4.57;;;1.87;;
69323;SDS011;56470;47.350;8.718;2022-10-16T16:23:21;5.57;;;2.60;;
69323;SDS011;56470;47.350;8.718;2022-10-16T16:26:01;4.73;;;2.20;;
69323;SDS011;56470;47.350;8.718;2022-10-16T16:28:37;4.00;;;1.92;;
69323;SDS011;56470;47.350;8.718;2022-10-16T16:31:04;5.70;;;1.85;;
69323;SDS011;56470;47.350;8.718;2022-10-16T16:33:30;4.55;;;2.17;;
69323;SDS011;56470;47.350;8.718;2022-10-16T16:35:59;5.50;;;1.97;;
69323;SDS011;56470;47.350;8.718;2022-10-16T16:38:29;3.30;;;2.08;;
69323;SDS011;56470;47.350;8.718;2022-10-16T16:40:55;3.95;;;2.30;;
69323;SDS011;56470;47.350;8.718;2022-10-16T16:43:29;6.37;;;2.40;;
69323;SDS011;56470;47.350;8.718;2022-10-16T16:45:54;5.68;;;2.38;;
69323;SDS011;56470;47.350;8.718;2022-10-16T16:48:20;4.17;;;2.07;;
69323;SDS011;56470;47.350;8.718;2022-10-16T16:50:46;4.30;;;2.42;;
69323;SDS011;56470;47.350;8.718;2022-10-16T16:53:12;6.43;;;2.63;;
69323;SDS011;56470;47.350;8.718;2022-10-16T16:55:37;5.20;;;2.77;;
69323;SDS011;56470;47.350;8.718;2022-10-16T16:58:02;4.70;;;2.90;;
69323;SDS011;56470;47.350;8.718;2022-10-16T17:00:29;5.05;;;2.78;;
69323;SDS011;56470;47.350;8.718;2022-10-16T17:02:55;7.57;;;3.37;;
69323;SDS011;56470;47.350;8.718;2022-10-16T17:05:21;8.02;;;3.40;;
69323;SDS011;56470;47.350;8.718;2022-10-16T17:07:46;6.60;;;3.23;;
69323;SDS011;56470;47.350;8.718;2022-10-16T17:10:11;8.37;;;4.70;;
69323;SDS011;56470;47.350;8.718;2022-10-16T17:12:37;6.33;;;4.23;;
69323;SDS011;56470;47.350;8.718;2022-10-16T17:15:02;7.73;;;4.43;;
69323;SDS011;56470;47.350;8.718;2022-10-16T17:17:28;8.70;;;4.03;;
69323;SDS011;56470;47.350;8.718;2022-10-16T17:19:53;8.10;;;3.80;;
69323;SDS011;56470;47.350;8.718;2022-10-16T17:22:19;9.23;;;2.83;;
69323;SDS011;56470;47.350;8.718;2022-10-16T17:24:47;12.65;;;3.55;;
69323;SDS011;56470;47.350;8.718;2022-10-16T17:27:14;7.03;;;3.10;;